Terminal Aerodrome Forecast
Issued by NWS

Home | Current Version | Previous Version | Text Only | Print | Product List | Glossary On
Versions: 1 2 3 4 5 6 7 8 9 10 11 12 13 14 15
000
FTUS44 KBMX 221129
TAFMGM
TAF
KMGM 221129Z 2212/2312 00000KT 5SM BR SKC
      TEMPO 2212/2213 2SM BR
     FM221600 VRB03KT P6SM SCT040
     FM222000 21005KT P6SM VCTS SCT040CB PROB30 2221/2224 4SM -TSRA
      BKN040CB
     FM230000 23002KT P6SM OVC050
     FM230900 00000KT 4SM BR FEW250=

USA.gov is the U.S. government's official web portal to all federal, state and local government web resources and services.